Palflot-5 — UBHC — position and weather

sailwx.info

Track history (hours):
 
Tides and Currents Weather Stations Pressure Air Temp Water Temp Dewpoint Dewpoint Depression Visibility Wind Speed Wind Dir Waves Ship Positions

Palflot-5

Last reported at 2015-Mar-23 23:27 UTC. Time now 2015-Mar-29 12:33 UTC.
Position N 44°03' E 038°49'.

Length 122 m; draft 3.2 m.

Type: Tanker. MMSI: 273443040.

Date/timePositionNaut miles runAvg speedWind from/ knotsBaromVisibWave heightAir tempDewpointWater temp
2015-Mar-23 23:27N 44°03' E 038°49'6 7.1
2015-Mar-23 22:33N 43°59' E 038°57'11 7.6
2015-Mar-23 21:09N 43°51' E 039°06'  
2015-Mar-20 22:32N 43°50' E 039°08'8 5.8
2015-Mar-20 21:10N 43°56' E 039°01'4 5.9
2015-Mar-20 20:30N 43°59' E 038°57'8 6.1
2015-Mar-20 19:16N 44°03' E 038°49'44 6.4
2015-Mar-20 12:22N 44°26' E 037°56'14 6.0
2015-Mar-20 10:03N 44°32' E 037°39'  
Track history (hours):
 
Tides and Currents Weather Stations Pressure Air Temp Water Temp Dewpoint Dewpoint Depression Visibility Wind Speed Wind Dir Waves Ship Positions

Palflot-5

Last reported at 2015-Mar-23 23:27 UTC. Time now 2015-Mar-29 12:33 UTC.
Position N 44°03' E 038°49'.

Length 122 m; draft 3.2 m.

Type: Tanker. MMSI: 273443040.

Date/timePositionNaut miles runAvg speedWind from/ knotsBaromVisibWave heightAir tempDewpointWater temp
2015-Mar-23 23:27N 44°03' E 038°49'6 7.1
2015-Mar-23 22:33N 43°59' E 038°57'11 7.6
2015-Mar-23 21:09N 43°51' E 039°06'  
2015-Mar-20 22:32N 43°50' E 039°08'8 5.8
2015-Mar-20 21:10N 43°56' E 039°01'4 5.9
2015-Mar-20 20:30N 43°59' E 038°57'8 6.1
2015-Mar-20 19:16N 44°03' E 038°49'44 6.4
2015-Mar-20 12:22N 44°26' E 037°56'14 6.0
2015-Mar-20 10:03N 44°32' E 037°39'  

Dump ship's entire track history